sensor_id;sensor_type;location;lat;lon;timestamp;P1;durP1;ratioP1;P2;durP2;ratioP2
12556;SDS011;6344;49.932;8.308;2023-11-21T00:01:15;4.80;;;2.97;;
12556;SDS011;6344;49.932;8.308;2023-11-21T00:03:42;3.93;;;2.90;;
12556;SDS011;6344;49.932;8.308;2023-11-21T00:06:10;5.83;;;2.53;;
12556;SDS011;6344;49.932;8.308;2023-11-21T00:08:37;6.00;;;3.20;;
12556;SDS011;6344;49.932;8.308;2023-11-21T00:11:04;6.20;;;3.00;;
12556;SDS011;6344;49.932;8.308;2023-11-21T00:13:31;4.50;;;2.70;;
12556;SDS011;6344;49.932;8.308;2023-11-21T00:15:58;6.27;;;3.00;;
12556;SDS011;6344;49.932;8.308;2023-11-21T00:18:24;6.47;;;2.87;;
12556;SDS011;6344;49.932;8.308;2023-11-21T00:20:51;2.77;;;2.07;;
12556;SDS011;6344;49.932;8.308;2023-11-21T00:23:19;4.90;;;2.60;;
12556;SDS011;6344;49.932;8.308;2023-11-21T00:25:46;6.60;;;2.70;;
12556;SDS011;6344;49.932;8.308;2023-11-21T00:28:12;2.50;;;2.20;;
12556;SDS011;6344;49.932;8.308;2023-11-21T00:30:40;7.27;;;3.50;;
12556;SDS011;6344;49.932;8.308;2023-11-21T00:33:06;2.97;;;2.57;;
12556;SDS011;6344;49.932;8.308;2023-11-21T00:35:33;5.40;;;3.20;;
12556;SDS011;6344;49.932;8.308;2023-11-21T00:38:00;4.87;;;2.70;;
12556;SDS011;6344;49.932;8.308;2023-11-21T00:40:29;3.77;;;3.03;;
12556;SDS011;6344;49.932;8.308;2023-11-21T00:42:56;4.10;;;2.40;;
12556;SDS011;6344;49.932;8.308;2023-11-21T00:45:24;3.07;;;2.37;;
12556;SDS011;6344;49.932;8.308;2023-11-21T00:47:51;5.13;;;2.40;;
12556;SDS011;6344;49.932;8.308;2023-11-21T00:50:18;6.07;;;3.23;;
12556;SDS011;6344;49.932;8.308;2023-11-21T00:52:44;3.83;;;2.80;;
12556;SDS011;6344;49.932;8.308;2023-11-21T00:55:11;3.77;;;3.17;;
12556;SDS011;6344;49.932;8.308;2023-11-21T00:57:39;4.43;;;3.23;;
12556;SDS011;6344;49.932;8.308;2023-11-21T01:00:06;3.60;;;3.30;;
12556;SDS011;6344;49.932;8.308;2023-11-21T01:02:38;9.77;;;4.07;;
12556;SDS011;6344;49.932;8.308;2023-11-21T01:05:05;4.40;;;3.47;;
12556;SDS011;6344;49.932;8.308;2023-11-21T01:07:33;6.70;;;3.40;;
12556;SDS011;6344;49.932;8.308;2023-11-21T01:10:01;4.07;;;3.23;;
12556;SDS011;6344;49.932;8.308;2023-11-21T01:12:30;5.57;;;3.40;;
12556;SDS011;6344;49.932;8.308;2023-11-21T01:14:58;7.93;;;3.97;;
12556;SDS011;6344;49.932;8.308;2023-11-21T01:17:25;6.40;;;3.50;;
12556;SDS011;6344;49.932;8.308;2023-11-21T01:19:52;6.90;;;4.40;;
12556;SDS011;6344;49.932;8.308;2023-11-21T01:22:19;6.07;;;3.70;;
12556;SDS011;6344;49.932;8.308;2023-11-21T01:24:50;4.13;;;3.73;;
12556;SDS011;6344;49.932;8.308;2023-11-21T01:27:17;4.60;;;4.20;;
12556;SDS011;6344;49.932;8.308;2023-11-21T01:29:44;4.70;;;3.80;;
12556;SDS011;6344;49.932;8.308;2023-11-21T01:32:12;5.37;;;3.90;;
12556;SDS011;6344;49.932;8.308;2023-11-21T01:34:39;4.30;;;3.80;;
12556;SDS011;6344;49.932;8.308;2023-11-21T01:37:05;5.53;;;4.40;;
12556;SDS011;6344;49.932;8.308;2023-11-21T01:39:32;5.60;;;3.90;;
12556;SDS011;6344;49.932;8.308;2023-11-21T01:41:59;4.80;;;3.73;;
12556;SDS011;6344;49.932;8.308;2023-11-21T01:44:26;5.30;;;3.77;;
12556;SDS011;6344;49.932;8.308;2023-11-21T01:46:52;3.90;;;3.53;;
12556;SDS011;6344;49.932;8.308;2023-11-21T01:49:21;4.93;;;3.80;;
12556;SDS011;6344;49.932;8.308;2023-11-21T01:51:48;8.77;;;4.83;;
12556;SDS011;6344;49.932;8.308;2023-11-21T01:54:16;4.73;;;4.10;;
12556;SDS011;6344;49.932;8.308;2023-11-21T01:56:45;6.13;;;4.43;;
12556;SDS011;6344;49.932;8.308;2023-11-21T01:59:12;7.40;;;4.20;;
12556;SDS011;6344;49.932;8.308;2023-11-21T02:01:43;5.10;;;3.93;;
12556;SDS011;6344;49.932;8.308;2023-11-21T02:04:11;5.63;;;4.10;;
12556;SDS011;6344;49.932;8.308;2023-11-21T02:06:39;6.17;;;4.20;;
12556;SDS011;6344;49.932;8.308;2023-11-21T02:09:06;7.27;;;4.20;;
12556;SDS011;6344;49.932;8.308;2023-11-21T02:11:34;4.60;;;4.03;;
12556;SDS011;6344;49.932;8.308;2023-11-21T02:14:00;5.03;;;4.47;;
12556;SDS011;6344;49.932;8.308;2023-11-21T02:16:28;10.50;;;4.70;;
12556;SDS011;6344;49.932;8.308;2023-11-21T02:18:56;7.10;;;4.53;;
12556;SDS011;6344;49.932;8.308;2023-11-21T02:21:24;4.70;;;4.30;;
12556;SDS011;6344;49.932;8.308;2023-11-21T02:23:52;8.73;;;4.63;;
12556;SDS011;6344;49.932;8.308;2023-11-21T02:26:20;4.23;;;3.73;;
12556;SDS011;6344;49.932;8.308;2023-11-21T02:28:47;4.83;;;4.50;;
12556;SDS011;6344;49.932;8.308;2023-11-21T02:31:13;5.63;;;4.60;;
12556;SDS011;6344;49.932;8.308;2023-11-21T02:33:41;6.50;;;4.90;;
12556;SDS011;6344;49.932;8.308;2023-11-21T02:36:09;6.03;;;4.43;;
12556;SDS011;6344;49.932;8.308;2023-11-21T02:38:35;6.33;;;4.97;;
12556;SDS011;6344;49.932;8.308;2023-11-21T02:41:03;5.47;;;4.97;;
12556;SDS011;6344;49.932;8.308;2023-11-21T02:43:30;6.00;;;4.93;;
12556;SDS011;6344;49.932;8.308;2023-11-21T02:45:57;7.93;;;5.80;;
12556;SDS011;6344;49.932;8.308;2023-11-21T02:48:23;6.23;;;5.17;;
12556;SDS011;6344;49.932;8.308;2023-11-21T02:50:50;8.73;;;5.90;;
12556;SDS011;6344;49.932;8.308;2023-11-21T02:53:18;8.40;;;6.60;;
12556;SDS011;6344;49.932;8.308;2023-11-21T02:55:45;7.17;;;6.40;;
12556;SDS011;6344;49.932;8.308;2023-11-21T02:58:13;6.77;;;6.10;;
12556;SDS011;6344;49.932;8.308;2023-11-21T03:00:39;6.43;;;5.63;;
12556;SDS011;6344;49.932;8.308;2023-11-21T03:03:07;8.93;;;6.97;;
12556;SDS011;6344;49.932;8.308;2023-11-21T03:05:34;9.93;;;6.67;;
12556;SDS011;6344;49.932;8.308;2023-11-21T03:08:02;11.70;;;8.23;;
12556;SDS011;6344;49.932;8.308;2023-11-21T03:10:29;10.30;;;7.40;;
12556;SDS011;6344;49.932;8.308;2023-11-21T03:12:55;7.80;;;7.10;;
12556;SDS011;6344;49.932;8.308;2023-11-21T03:15:24;8.40;;;7.60;;
12556;SDS011;6344;49.932;8.308;2023-11-21T03:17:50;9.60;;;7.90;;
12556;SDS011;6344;49.932;8.308;2023-11-21T03:20:17;12.33;;;9.77;;
12556;SDS011;6344;49.932;8.308;2023-11-21T03:22:44;12.40;;;8.77;;
12556;SDS011;6344;49.932;8.308;2023-11-21T03:25:10;10.07;;;9.07;;
12556;SDS011;6344;49.932;8.308;2023-11-21T03:27:37;18.73;;;9.03;;
12556;SDS011;6344;49.932;8.308;2023-11-21T03:30:05;9.03;;;8.07;;
12556;SDS011;6344;49.932;8.308;2023-11-21T03:32:35;12.37;;;9.23;;
12556;SDS011;6344;49.932;8.308;2023-11-21T03:35:02;11.57;;;9.67;;
12556;SDS011;6344;49.932;8.308;2023-11-21T03:37:31;11.00;;;9.40;;
12556;SDS011;6344;49.932;8.308;2023-11-21T03:39:57;8.60;;;7.70;;
12556;SDS011;6344;49.932;8.308;2023-11-21T03:42:24;12.27;;;8.30;;
12556;SDS011;6344;49.932;8.308;2023-11-21T03:44:51;10.33;;;8.40;;
12556;SDS011;6344;49.932;8.308;2023-11-21T03:47:18;13.83;;;10.43;;
12556;SDS011;6344;49.932;8.308;2023-11-21T03:49:46;12.80;;;10.10;;
12556;SDS011;6344;49.932;8.308;2023-11-21T03:52:13;16.23;;;11.20;;
12556;SDS011;6344;49.932;8.308;2023-11-21T03:54:40;13.80;;;9.70;;
12556;SDS011;6344;49.932;8.308;2023-11-21T03:57:08;12.67;;;9.70;;
12556;SDS011;6344;49.932;8.308;2023-11-21T03:59:35;13.77;;;9.53;;
12556;SDS011;6344;49.932;8.308;2023-11-21T04:02:02;12.80;;;9.63;;
12556;SDS011;6344;49.932;8.308;2023-11-21T04:04:28;12.60;;;10.37;;
12556;SDS011;6344;49.932;8.308;2023-11-21T04:06:56;14.37;;;11.53;;
12556;SDS011;6344;49.932;8.308;2023-11-21T04:09:23;13.37;;;11.57;;
12556;SDS011;6344;49.932;8.308;2023-11-21T04:11:50;14.73;;;12.30;;
12556;SDS011;6344;49.932;8.308;2023-11-21T04:14:17;13.17;;;10.67;;
12556;SDS011;6344;49.932;8.308;2023-11-21T04:16:43;16.57;;;12.30;;
12556;SDS011;6344;49.932;8.308;2023-11-21T04:19:10;15.00;;;10.93;;
12556;SDS011;6344;49.932;8.308;2023-11-21T04:21:39;13.40;;;10.30;;
12556;SDS011;6344;49.932;8.308;2023-11-21T04:24:08;15.10;;;10.47;;
12556;SDS011;6344;49.932;8.308;2023-11-21T04:26:35;13.37;;;10.13;;
12556;SDS011;6344;49.932;8.308;2023-11-21T04:29:02;12.00;;;10.43;;
12556;SDS011;6344;49.932;8.308;2023-11-21T04:31:29;13.20;;;9.40;;
12556;SDS011;6344;49.932;8.308;2023-11-21T04:33:56;14.63;;;10.47;;
12556;SDS011;6344;49.932;8.308;2023-11-21T04:36:23;16.57;;;10.50;;
12556;SDS011;6344;49.932;8.308;2023-11-21T04:38:50;16.20;;;10.73;;
12556;SDS011;6344;49.932;8.308;2023-11-21T04:41:18;15.77;;;10.70;;
12556;SDS011;6344;49.932;8.308;2023-11-21T04:43:44;10.40;;;8.80;;
12556;SDS011;6344;49.932;8.308;2023-11-21T04:46:11;10.50;;;8.03;;
12556;SDS011;6344;49.932;8.308;2023-11-21T04:48:38;13.43;;;8.60;;
12556;SDS011;6344;49.932;8.308;2023-11-21T04:51:05;10.97;;;9.60;;
12556;SDS011;6344;49.932;8.308;2023-11-21T04:53:32;10.53;;;8.37;;
12556;SDS011;6344;49.932;8.308;2023-11-21T04:55:59;17.83;;;9.70;;
12556;SDS011;6344;49.932;8.308;2023-11-21T04:58:27;9.93;;;8.90;;
12556;SDS011;6344;49.932;8.308;2023-11-21T05:00:54;10.30;;;8.43;;
12556;SDS011;6344;49.932;8.308;2023-11-21T05:03:21;11.13;;;9.20;;
12556;SDS011;6344;49.932;8.308;2023-11-21T05:05:48;10.93;;;6.90;;
12556;SDS011;6344;49.932;8.308;2023-11-21T05:08:15;7.83;;;7.13;;
12556;SDS011;6344;49.932;8.308;2023-11-21T05:10:42;9.43;;;7.47;;
12556;SDS011;6344;49.932;8.308;2023-11-21T05:13:09;5.90;;;5.23;;
12556;SDS011;6344;49.932;8.308;2023-11-21T05:15:37;7.47;;;6.77;;
12556;SDS011;6344;49.932;8.308;2023-11-21T05:18:04;7.70;;;6.70;;
12556;SDS011;6344;49.932;8.308;2023-11-21T05:20:31;6.50;;;5.43;;
12556;SDS011;6344;49.932;8.308;2023-11-21T05:22:58;6.37;;;5.77;;
12556;SDS011;6344;49.932;8.308;2023-11-21T05:25:25;7.13;;;6.43;;
12556;SDS011;6344;49.932;8.308;2023-11-21T05:27:51;5.77;;;5.10;;
12556;SDS011;6344;49.932;8.308;2023-11-21T05:30:19;7.00;;;6.00;;
12556;SDS011;6344;49.932;8.308;2023-11-21T05:32:48;10.13;;;6.53;;
12556;SDS011;6344;49.932;8.308;2023-11-21T05:35:15;7.50;;;6.77;;
12556;SDS011;6344;49.932;8.308;2023-11-21T05:37:42;7.93;;;6.03;;
12556;SDS011;6344;49.932;8.308;2023-11-21T05:40:09;6.53;;;5.87;;
12556;SDS011;6344;49.932;8.308;2023-11-21T05:42:38;7.17;;;6.57;;
12556;SDS011;6344;49.932;8.308;2023-11-21T05:45:05;7.60;;;6.70;;
12556;SDS011;6344;49.932;8.308;2023-11-21T05:47:36;7.93;;;7.20;;
12556;SDS011;6344;49.932;8.308;2023-11-21T05:50:06;9.00;;;7.07;;
12556;SDS011;6344;49.932;8.308;2023-11-21T05:52:37;10.77;;;7.40;;
12556;SDS011;6344;49.932;8.308;2023-11-21T05:55:04;10.43;;;8.00;;
12556;SDS011;6344;49.932;8.308;2023-11-21T05:57:33;8.40;;;6.93;;
12556;SDS011;6344;49.932;8.308;2023-11-21T06:00:02;10.13;;;7.00;;
12556;SDS011;6344;49.932;8.308;2023-11-21T06:02:36;7.63;;;6.93;;
12556;SDS011;6344;49.932;8.308;2023-11-21T06:05:03;11.23;;;8.20;;
12556;SDS011;6344;49.932;8.308;2023-11-21T06:07:31;10.20;;;8.00;;
12556;SDS011;6344;49.932;8.308;2023-11-21T06:09:58;10.13;;;8.03;;
12556;SDS011;6344;49.932;8.308;2023-11-21T06:12:26;10.40;;;8.67;;
12556;SDS011;6344;49.932;8.308;2023-11-21T06:14:52;12.63;;;9.57;;
12556;SDS011;6344;49.932;8.308;2023-11-21T06:17:20;10.10;;;8.97;;
12556;SDS011;6344;49.932;8.308;2023-11-21T06:19:49;10.63;;;8.60;;
12556;SDS011;6344;49.932;8.308;2023-11-21T06:22:17;13.73;;;9.67;;
12556;SDS011;6344;49.932;8.308;2023-11-21T06:24:46;10.80;;;9.00;;
12556;SDS011;6344;49.932;8.308;2023-11-21T06:27:12;10.07;;;8.90;;
12556;SDS011;6344;49.932;8.308;2023-11-21T06:29:39;7.77;;;7.03;;
12556;SDS011;6344;49.932;8.308;2023-11-21T06:32:07;10.93;;;9.80;;
12556;SDS011;6344;49.932;8.308;2023-11-21T06:34:34;9.83;;;8.83;;
12556;SDS011;6344;49.932;8.308;2023-11-21T06:37:00;11.97;;;9.00;;
12556;SDS011;6344;49.932;8.308;2023-11-21T06:39:27;11.77;;;8.67;;
12556;SDS011;6344;49.932;8.308;2023-11-21T06:41:55;8.77;;;7.67;;
12556;SDS011;6344;49.932;8.308;2023-11-21T06:44:22;10.07;;;8.50;;
12556;SDS011;6344;49.932;8.308;2023-11-21T06:46:49;9.40;;;8.37;;
12556;SDS011;6344;49.932;8.308;2023-11-21T06:49:16;10.47;;;8.27;;
12556;SDS011;6344;49.932;8.308;2023-11-21T06:51:43;10.60;;;8.53;;
12556;SDS011;6344;49.932;8.308;2023-11-21T06:54:09;8.73;;;7.93;;
12556;SDS011;6344;49.932;8.308;2023-11-21T06:56:36;8.97;;;8.07;;
12556;SDS011;6344;49.932;8.308;2023-11-21T06:59:05;9.40;;;8.40;;
12556;SDS011;6344;49.932;8.308;2023-11-21T07:01:32;8.37;;;7.50;;
12556;SDS011;6344;49.932;8.308;2023-11-21T07:04:04;9.67;;;7.43;;
12556;SDS011;6344;49.932;8.308;2023-11-21T07:06:31;7.13;;;6.53;;
12556;SDS011;6344;49.932;8.308;2023-11-21T07:08:57;7.00;;;6.30;;
12556;SDS011;6344;49.932;8.308;2023-11-21T07:11:24;10.30;;;7.10;;
12556;SDS011;6344;49.932;8.308;2023-11-21T07:13:51;8.93;;;8.10;;
12556;SDS011;6344;49.932;8.308;2023-11-21T07:16:19;6.73;;;6.00;;
12556;SDS011;6344;49.932;8.308;2023-11-21T07:18:47;7.80;;;7.00;;
12556;SDS011;6344;49.932;8.308;2023-11-21T07:21:14;7.30;;;6.40;;
12556;SDS011;6344;49.932;8.308;2023-11-21T07:23:41;9.63;;;6.77;;
12556;SDS011;6344;49.932;8.308;2023-11-21T07:26:08;6.83;;;6.10;;
12556;SDS011;6344;49.932;8.308;2023-11-21T07:28:35;8.03;;;7.23;;
12556;SDS011;6344;49.932;8.308;2023-11-21T07:31:02;8.20;;;7.00;;
12556;SDS011;6344;49.932;8.308;2023-11-21T07:33:30;7.70;;;6.70;;
12556;SDS011;6344;49.932;8.308;2023-11-21T07:35:57;7.97;;;7.30;;
12556;SDS011;6344;49.932;8.308;2023-11-21T07:38:24;6.97;;;6.37;;
12556;SDS011;6344;49.932;8.308;2023-11-21T07:40:50;7.27;;;6.57;;
12556;SDS011;6344;49.932;8.308;2023-11-21T07:43:17;8.57;;;7.47;;
12556;SDS011;6344;49.932;8.308;2023-11-21T07:45:44;7.87;;;7.07;;
12556;SDS011;6344;49.932;8.308;2023-11-21T07:48:11;7.57;;;6.87;;
12556;SDS011;6344;49.932;8.308;2023-11-21T07:50:39;8.40;;;7.57;;
12556;SDS011;6344;49.932;8.308;2023-11-21T07:53:05;9.63;;;6.50;;
12556;SDS011;6344;49.932;8.308;2023-11-21T07:55:32;7.80;;;7.00;;
12556;SDS011;6344;49.932;8.308;2023-11-21T07:57:59;8.40;;;7.13;;
12556;SDS011;6344;49.932;8.308;2023-11-21T08:00:25;8.60;;;7.47;;
12556;SDS011;6344;49.932;8.308;2023-11-21T08:02:55;7.63;;;6.87;;
12556;SDS011;6344;49.932;8.308;2023-11-21T08:05:21;10.20;;;6.70;;
12556;SDS011;6344;49.932;8.308;2023-11-21T08:07:49;9.03;;;7.83;;
12556;SDS011;6344;49.932;8.308;2023-11-21T08:10:16;9.47;;;7.27;;
12556;SDS011;6344;49.932;8.308;2023-11-21T08:12:43;8.07;;;7.37;;
12556;SDS011;6344;49.932;8.308;2023-11-21T08:15:09;10.83;;;7.00;;
12556;SDS011;6344;49.932;8.308;2023-11-21T08:17:36;9.50;;;8.00;;
12556;SDS011;6344;49.932;8.308;2023-11-21T08:20:04;9.70;;;7.97;;
12556;SDS011;6344;49.932;8.308;2023-11-21T08:22:33;9.53;;;8.60;;
12556;SDS011;6344;49.932;8.308;2023-11-21T08:25:01;8.70;;;7.90;;
12556;SDS011;6344;49.932;8.308;2023-11-21T08:27:29;9.50;;;8.60;;
12556;SDS011;6344;49.932;8.308;2023-11-21T08:29:56;8.43;;;7.53;;
12556;SDS011;6344;49.932;8.308;2023-11-21T08:32:23;10.50;;;8.13;;
12556;SDS011;6344;49.932;8.308;2023-11-21T08:34:50;8.73;;;7.93;;
12556;SDS011;6344;49.932;8.308;2023-11-21T08:37:16;9.23;;;8.43;;
12556;SDS011;6344;49.932;8.308;2023-11-21T08:39:43;7.50;;;6.80;;
12556;SDS011;6344;49.932;8.308;2023-11-21T08:42:11;8.47;;;7.67;;
12556;SDS011;6344;49.932;8.308;2023-11-21T08:44:38;7.93;;;7.20;;
12556;SDS011;6344;49.932;8.308;2023-11-21T08:47:05;7.93;;;7.20;;
12556;SDS011;6344;49.932;8.308;2023-11-21T08:49:31;7.40;;;6.57;;
12556;SDS011;6344;49.932;8.308;2023-11-21T08:51:58;7.40;;;6.80;;
12556;SDS011;6344;49.932;8.308;2023-11-21T08:54:25;8.13;;;6.43;;
12556;SDS011;6344;49.932;8.308;2023-11-21T08:56:52;5.97;;;5.47;;
12556;SDS011;6344;49.932;8.308;2023-11-21T08:59:21;6.57;;;5.97;;
12556;SDS011;6344;49.932;8.308;2023-11-21T09:01:47;7.17;;;5.43;;
12556;SDS011;6344;49.932;8.308;2023-11-21T09:04:14;5.97;;;5.47;;
12556;SDS011;6344;49.932;8.308;2023-11-21T09:06:41;6.80;;;5.27;;
12556;SDS011;6344;49.932;8.308;2023-11-21T09:09:07;4.40;;;4.10;;
12556;SDS011;6344;49.932;8.308;2023-11-21T09:11:35;4.77;;;4.37;;
12556;SDS011;6344;49.932;8.308;2023-11-21T09:14:01;10.20;;;6.07;;
12556;SDS011;6344;49.932;8.308;2023-11-21T09:16:30;5.60;;;5.10;;
12556;SDS011;6344;49.932;8.308;2023-11-21T09:18:56;6.13;;;5.53;;
12556;SDS011;6344;49.932;8.308;2023-11-21T09:21:24;5.00;;;4.50;;
12556;SDS011;6344;49.932;8.308;2023-11-21T09:23:50;6.17;;;4.30;;
12556;SDS011;6344;49.932;8.308;2023-11-21T09:26:17;6.27;;;5.40;;
12556;SDS011;6344;49.932;8.308;2023-11-21T09:28:44;6.03;;;4.10;;
12556;SDS011;6344;49.932;8.308;2023-11-21T09:31:12;3.67;;;3.30;;
12556;SDS011;6344;49.932;8.308;2023-11-21T09:33:42;4.87;;;4.03;;
12556;SDS011;6344;49.932;8.308;2023-11-21T09:36:11;6.40;;;5.00;;
12556;SDS011;6344;49.932;8.308;2023-11-21T09:38:39;4.63;;;4.03;;
12556;SDS011;6344;49.932;8.308;2023-11-21T09:41:06;7.07;;;4.33;;
12556;SDS011;6344;49.932;8.308;2023-11-21T09:43:42;7.90;;;5.53;;
12556;SDS011;6344;49.932;8.308;2023-11-21T09:46:11;4.50;;;4.10;;
12556;SDS011;6344;49.932;8.308;2023-11-21T09:48:46;6.53;;;5.03;;
12556;SDS011;6344;49.932;8.308;2023-11-21T09:51:16;5.70;;;5.20;;
12556;SDS011;6344;49.932;8.308;2023-11-21T09:53:46;4.53;;;4.13;;
12556;SDS011;6344;49.932;8.308;2023-11-21T09:56:17;5.13;;;3.90;;
12556;SDS011;6344;49.932;8.308;2023-11-21T09:58:49;5.57;;;4.60;;
12556;SDS011;6344;49.932;8.308;2023-11-21T10:01:17;6.40;;;3.47;;
12556;SDS011;6344;49.932;8.308;2023-11-21T10:03:46;6.47;;;5.10;;
12556;SDS011;6344;49.932;8.308;2023-11-21T10:06:13;5.30;;;4.80;;
12556;SDS011;6344;49.932;8.308;2023-11-21T10:08:42;7.13;;;4.70;;
12556;SDS011;6344;49.932;8.308;2023-11-21T10:11:09;4.80;;;4.30;;
12556;SDS011;6344;49.932;8.308;2023-11-21T10:13:39;6.03;;;5.43;;
12556;SDS011;6344;49.932;8.308;2023-11-21T10:16:07;3.57;;;3.30;;
12556;SDS011;6344;49.932;8.308;2023-11-21T10:18:38;6.10;;;2.90;;
12556;SDS011;6344;49.932;8.308;2023-11-21T10:21:07;6.00;;;4.90;;
12556;SDS011;6344;49.932;8.308;2023-11-21T10:23:34;4.50;;;4.00;;
12556;SDS011;6344;49.932;8.308;2023-11-21T10:26:01;5.50;;;4.93;;
12556;SDS011;6344;49.932;8.308;2023-11-21T10:28:28;5.53;;;5.03;;
12556;SDS011;6344;49.932;8.308;2023-11-21T10:30:55;7.17;;;5.10;;
12556;SDS011;6344;49.932;8.308;2023-11-21T10:33:26;4.87;;;4.43;;
12556;SDS011;6344;49.932;8.308;2023-11-21T10:35:54;9.30;;;5.33;;
12556;SDS011;6344;49.932;8.308;2023-11-21T10:38:22;5.67;;;4.73;;
12556;SDS011;6344;49.932;8.308;2023-11-21T10:40:51;6.53;;;4.90;;
12556;SDS011;6344;49.932;8.308;2023-11-21T10:43:19;5.70;;;5.23;;
12556;SDS011;6344;49.932;8.308;2023-11-21T10:45:50;4.40;;;3.97;;
12556;SDS011;6344;49.932;8.308;2023-11-21T10:48:17;5.40;;;5.00;;
12556;SDS011;6344;49.932;8.308;2023-11-21T10:50:44;7.87;;;5.30;;
12556;SDS011;6344;49.932;8.308;2023-11-21T10:53:12;6.00;;;4.70;;
12556;SDS011;6344;49.932;8.308;2023-11-21T10:55:40;6.40;;;5.67;;
12556;SDS011;6344;49.932;8.308;2023-11-21T10:58:09;7.30;;;5.20;;
12556;SDS011;6344;49.932;8.308;2023-11-21T11:00:39;5.33;;;4.93;;
12556;SDS011;6344;49.932;8.308;2023-11-21T11:03:06;5.80;;;4.57;;
12556;SDS011;6344;49.932;8.308;2023-11-21T11:05:38;4.87;;;4.47;;
12556;SDS011;6344;49.932;8.308;2023-11-21T11:08:08;8.60;;;5.40;;
12556;SDS011;6344;49.932;8.308;2023-11-21T11:10:37;6.33;;;4.80;;
12556;SDS011;6344;49.932;8.308;2023-11-21T11:13:06;5.33;;;4.87;;
12556;SDS011;6344;49.932;8.308;2023-11-21T11:15:33;6.53;;;5.23;;
12556;SDS011;6344;49.932;8.308;2023-11-21T11:18:00;7.37;;;4.93;;
12556;SDS011;6344;49.932;8.308;2023-11-21T11:20:30;9.90;;;5.37;;
12556;SDS011;6344;49.932;8.308;2023-11-21T11:23:10;5.73;;;4.90;;
12556;SDS011;6344;49.932;8.308;2023-11-21T11:25:52;9.43;;;5.13;;
12556;SDS011;6344;49.932;8.308;2023-11-21T11:28:29;8.33;;;6.40;;
12556;SDS011;6344;49.932;8.308;2023-11-21T11:31:04;6.43;;;5.80;;
12556;SDS011;6344;49.932;8.308;2023-11-21T11:33:38;6.93;;;5.10;;
12556;SDS011;6344;49.932;8.308;2023-11-21T11:36:10;6.33;;;5.80;;
12556;SDS011;6344;49.932;8.308;2023-11-21T11:38:45;5.30;;;4.80;;
12556;SDS011;6344;49.932;8.308;2023-11-21T11:41:15;5.93;;;4.70;;
12556;SDS011;6344;49.932;8.308;2023-11-21T11:43:52;7.63;;;5.33;;
12556;SDS011;6344;49.932;8.308;2023-11-21T11:46:19;6.10;;;5.50;;
12556;SDS011;6344;49.932;8.308;2023-11-21T11:48:47;5.50;;;5.00;;
12556;SDS011;6344;49.932;8.308;2023-11-21T11:51:15;4.90;;;4.20;;
12556;SDS011;6344;49.932;8.308;2023-11-21T11:53:44;5.03;;;4.60;;
12556;SDS011;6344;49.932;8.308;2023-11-21T11:56:19;4.60;;;4.20;;
12556;SDS011;6344;49.932;8.308;2023-11-21T11:58:53;4.80;;;4.50;;
12556;SDS011;6344;49.932;8.308;2023-11-21T12:01:22;7.43;;;4.20;;
12556;SDS011;6344;49.932;8.308;2023-11-21T12:07:03;4.60;;;4.13;;
12556;SDS011;6344;49.932;8.308;2023-11-21T12:09:31;4.70;;;4.30;;
12556;SDS011;6344;49.932;8.308;2023-11-21T12:11:58;4.87;;;4.13;;
12556;SDS011;6344;49.932;8.308;2023-11-21T12:14:27;4.10;;;3.77;;
12556;SDS011;6344;49.932;8.308;2023-11-21T12:16:54;4.07;;;3.67;;
12556;SDS011;6344;49.932;8.308;2023-11-21T12:19:21;4.87;;;4.37;;
12556;SDS011;6344;49.932;8.308;2023-11-21T12:21:48;4.63;;;4.23;;
12556;SDS011;6344;49.932;8.308;2023-11-21T12:24:15;6.40;;;3.80;;
12556;SDS011;6344;49.932;8.308;2023-11-21T12:26:42;3.97;;;3.10;;
12556;SDS011;6344;49.932;8.308;2023-11-21T12:29:10;3.33;;;3.13;;
12556;SDS011;6344;49.932;8.308;2023-11-21T12:31:38;3.50;;;3.20;;
12556;SDS011;6344;49.932;8.308;2023-11-21T12:34:05;5.43;;;4.10;;
12556;SDS011;6344;49.932;8.308;2023-11-21T12:36:34;8.33;;;5.30;;
12556;SDS011;6344;49.932;8.308;2023-11-21T12:39:01;4.83;;;3.90;;
12556;SDS011;6344;49.932;8.308;2023-11-21T12:41:28;5.00;;;3.70;;
12556;SDS011;6344;49.932;8.308;2023-11-21T12:43:56;4.67;;;3.70;;
12556;SDS011;6344;49.932;8.308;2023-11-21T12:46:23;4.77;;;3.73;;
12556;SDS011;6344;49.932;8.308;2023-11-21T12:48:54;4.93;;;4.43;;
12556;SDS011;6344;49.932;8.308;2023-11-21T12:51:21;5.00;;;4.60;;
12556;SDS011;6344;49.932;8.308;2023-11-21T12:53:48;7.57;;;5.07;;
12556;SDS011;6344;49.932;8.308;2023-11-21T12:56:16;7.07;;;4.80;;
12556;SDS011;6344;49.932;8.308;2023-11-21T12:58:44;3.40;;;3.20;;
12556;SDS011;6344;49.932;8.308;2023-11-21T13:01:12;6.30;;;4.80;;
12556;SDS011;6344;49.932;8.308;2023-11-21T13:03:43;4.60;;;3.93;;
12556;SDS011;6344;49.932;8.308;2023-11-21T13:06:14;4.17;;;3.77;;
12556;SDS011;6344;49.932;8.308;2023-11-21T13:08:41;5.30;;;4.30;;
12556;SDS011;6344;49.932;8.308;2023-11-21T13:11:10;3.20;;;3.00;;
12556;SDS011;6344;49.932;8.308;2023-11-21T13:13:39;4.50;;;4.10;;
12556;SDS011;6344;49.932;8.308;2023-11-21T13:16:07;8.37;;;3.90;;
12556;SDS011;6344;49.932;8.308;2023-11-21T13:18:35;8.57;;;4.60;;
12556;SDS011;6344;49.932;8.308;2023-11-21T13:21:03;4.20;;;3.90;;
12556;SDS011;6344;49.932;8.308;2023-11-21T13:23:36;6.93;;;4.70;;
12556;SDS011;6344;49.932;8.308;2023-11-21T13:26:03;4.93;;;4.53;;
12556;SDS011;6344;49.932;8.308;2023-11-21T13:28:31;5.40;;;4.40;;
12556;SDS011;6344;49.932;8.308;2023-11-21T13:30:58;5.40;;;5.00;;
12556;SDS011;6344;49.932;8.308;2023-11-21T13:33:28;7.57;;;4.70;;
12556;SDS011;6344;49.932;8.308;2023-11-21T13:35:55;6.40;;;5.37;;
12556;SDS011;6344;49.932;8.308;2023-11-21T13:38:22;5.50;;;3.73;;
12556;SDS011;6344;49.932;8.308;2023-11-21T13:40:51;5.00;;;4.50;;
12556;SDS011;6344;49.932;8.308;2023-11-21T13:43:19;9.43;;;5.53;;
12556;SDS011;6344;49.932;8.308;2023-11-21T13:45:49;5.87;;;5.17;;
12556;SDS011;6344;49.932;8.308;2023-11-21T13:48:20;5.63;;;5.00;;
12556;SDS011;6344;49.932;8.308;2023-11-21T13:50:57;7.23;;;5.93;;
12556;SDS011;6344;49.932;8.308;2023-11-21T13:53:26;6.67;;;5.23;;
12556;SDS011;6344;49.932;8.308;2023-11-21T13:55:54;7.33;;;6.10;;
12556;SDS011;6344;49.932;8.308;2023-11-21T13:58:22;5.10;;;4.70;;
12556;SDS011;6344;49.932;8.308;2023-11-21T14:00:59;6.83;;;5.63;;
12556;SDS011;6344;49.932;8.308;2023-11-21T14:03:31;7.03;;;5.50;;
12556;SDS011;6344;49.932;8.308;2023-11-21T14:06:04;11.20;;;4.10;;
12556;SDS011;6344;49.932;8.308;2023-11-21T14:08:39;5.20;;;4.70;;
12556;SDS011;6344;49.932;8.308;2023-11-21T14:11:07;7.10;;;6.50;;
12556;SDS011;6344;49.932;8.308;2023-11-21T14:13:36;6.33;;;5.67;;
12556;SDS011;6344;49.932;8.308;2023-11-21T14:16:03;6.97;;;6.37;;
12556;SDS011;6344;49.932;8.308;2023-11-21T14:18:31;6.60;;;5.90;;
12556;SDS011;6344;49.932;8.308;2023-11-21T14:21:03;7.17;;;6.50;;
12556;SDS011;6344;49.932;8.308;2023-11-21T14:23:30;11.20;;;7.60;;
12556;SDS011;6344;49.932;8.308;2023-11-21T14:25:59;7.83;;;7.03;;
12556;SDS011;6344;49.932;8.308;2023-11-21T14:28:27;7.90;;;6.20;;
12556;SDS011;6344;49.932;8.308;2023-11-21T14:30:54;8.00;;;7.20;;
12556;SDS011;6344;49.932;8.308;2023-11-21T14:33:21;6.50;;;5.90;;
12556;SDS011;6344;49.932;8.308;2023-11-21T14:35:47;6.53;;;5.90;;
12556;SDS011;6344;49.932;8.308;2023-11-21T14:38:15;7.27;;;6.57;;
12556;SDS011;6344;49.932;8.308;2023-11-21T14:40:43;7.00;;;6.40;;
12556;SDS011;6344;49.932;8.308;2023-11-21T14:43:10;7.07;;;6.37;;
12556;SDS011;6344;49.932;8.308;2023-11-21T14:45:38;7.20;;;6.50;;
12556;SDS011;6344;49.932;8.308;2023-11-21T14:48:04;8.67;;;6.40;;
12556;SDS011;6344;49.932;8.308;2023-11-21T14:50:33;10.70;;;6.23;;
12556;SDS011;6344;49.932;8.308;2023-11-21T14:53:08;7.40;;;6.70;;
12556;SDS011;6344;49.932;8.308;2023-11-21T14:55:37;10.03;;;6.47;;
12556;SDS011;6344;49.932;8.308;2023-11-21T14:58:18;9.93;;;5.87;;
12556;SDS011;6344;49.932;8.308;2023-11-21T15:00:52;7.90;;;5.67;;
12556;SDS011;6344;49.932;8.308;2023-11-21T15:03:22;7.13;;;5.80;;
12556;SDS011;6344;49.932;8.308;2023-11-21T15:06:08;13.83;;;5.93;;